sensor_id;sensor_type;location;lat;lon;timestamp;temperature;humidity
43647;DHT22;56152;49.996;18.980;2023-04-25T00:03:02;10.20;94.00
43647;DHT22;56152;49.996;18.980;2023-04-25T00:08:06;10.20;94.00
43647;DHT22;56152;49.996;18.980;2023-04-25T00:13:12;10.20;94.10
43647;DHT22;56152;49.996;18.980;2023-04-25T00:18:15;10.20;94.10
43647;DHT22;56152;49.996;18.980;2023-04-25T00:23:27;10.10;94.10
43647;DHT22;56152;49.996;18.980;2023-04-25T00:28:31;10.20;94.20
43647;DHT22;56152;49.996;18.980;2023-04-25T00:33:36;10.10;94.20
43647;DHT22;56152;49.996;18.980;2023-04-25T00:38:39;10.10;94.20
43647;DHT22;56152;49.996;18.980;2023-04-25T00:43:44;10.10;94.20
43647;DHT22;56152;49.996;18.980;2023-04-25T00:48:47;10.10;94.30
43647;DHT22;56152;49.996;18.980;2023-04-25T00:53:50;10.00;94.40
43647;DHT22;56152;49.996;18.980;2023-04-25T00:58:58;10.00;94.40
43647;DHT22;56152;49.996;18.980;2023-04-25T01:04:01;10.00;94.50
43647;DHT22;56152;49.996;18.980;2023-04-25T01:09:04;10.00;94.50
43647;DHT22;56152;49.996;18.980;2023-04-25T01:14:08;9.90;94.50
43647;DHT22;56152;49.996;18.980;2023-04-25T01:19:16;9.90;94.50
43647;DHT22;56152;49.996;18.980;2023-04-25T01:24:23;9.80;94.50
43647;DHT22;56152;49.996;18.980;2023-04-25T01:29:27;9.80;94.50
43647;DHT22;56152;49.996;18.980;2023-04-25T01:34:30;9.80;94.50
43647;DHT22;56152;49.996;18.980;2023-04-25T01:39:34;9.80;94.50
43647;DHT22;56152;49.996;18.980;2023-04-25T01:44:36;9.70;94.40
43647;DHT22;56152;49.996;18.980;2023-04-25T01:49:39;9.70;94.40
43647;DHT22;56152;49.996;18.980;2023-04-25T01:54:44;9.60;94.40
43647;DHT22;56152;49.996;18.980;2023-04-25T01:59:49;9.60;94.40
43647;DHT22;56152;49.996;18.980;2023-04-25T02:04:55;9.50;94.50
43647;DHT22;56152;49.996;18.980;2023-04-25T02:10:00;9.50;94.50
43647;DHT22;56152;49.996;18.980;2023-04-25T02:15:03;9.50;94.50
43647;DHT22;56152;49.996;18.980;2023-04-25T02:20:06;9.40;94.50
43647;DHT22;56152;49.996;18.980;2023-04-25T02:25:13;9.30;94.60
43647;DHT22;56152;49.996;18.980;2023-04-25T02:30:16;9.30;94.60
43647;DHT22;56152;49.996;18.980;2023-04-25T02:35:19;9.20;94.60
43647;DHT22;56152;49.996;18.980;2023-04-25T02:40:23;9.10;94.70
43647;DHT22;56152;49.996;18.980;2023-04-25T02:45:25;9.00;94.70
43647;DHT22;56152;49.996;18.980;2023-04-25T02:50:30;9.00;94.70
43647;DHT22;56152;49.996;18.980;2023-04-25T02:55:34;9.00;94.70
43647;DHT22;56152;49.996;18.980;2023-04-25T03:00:36;8.90;94.70
43647;DHT22;56152;49.996;18.980;2023-04-25T03:05:39;8.90;94.70
43647;DHT22;56152;49.996;18.980;2023-04-25T03:10:43;8.80;94.70
43647;DHT22;56152;49.996;18.980;2023-04-25T03:15:45;8.80;94.70
43647;DHT22;56152;49.996;18.980;2023-04-25T03:20:48;8.70;94.70
43647;DHT22;56152;49.996;18.980;2023-04-25T03:25:53;8.60;94.70
43647;DHT22;56152;49.996;18.980;2023-04-25T03:30:55;8.60;94.80
43647;DHT22;56152;49.996;18.980;2023-04-25T03:36:00;8.50;94.80
43647;DHT22;56152;49.996;18.980;2023-04-25T03:41:06;8.50;94.80
43647;DHT22;56152;49.996;18.980;2023-04-25T03:46:08;8.40;94.70
43647;DHT22;56152;49.996;18.980;2023-04-25T03:51:10;8.40;94.70
43647;DHT22;56152;49.996;18.980;2023-04-25T03:56:17;8.40;94.70
43647;DHT22;56152;49.996;18.980;2023-04-25T04:01:20;8.30;94.70
43647;DHT22;56152;49.996;18.980;2023-04-25T04:06:22;8.30;94.70
43647;DHT22;56152;49.996;18.980;2023-04-25T04:11:30;8.20;94.70
43647;DHT22;56152;49.996;18.980;2023-04-25T04:16:33;8.30;94.70
43647;DHT22;56152;49.996;18.980;2023-04-25T04:21:35;8.20;94.70
43647;DHT22;56152;49.996;18.980;2023-04-25T04:26:39;8.30;94.70
43647;DHT22;56152;49.996;18.980;2023-04-25T04:31:41;8.20;94.70
43647;DHT22;56152;49.996;18.980;2023-04-25T04:36:45;8.30;94.70
43647;DHT22;56152;49.996;18.980;2023-04-25T04:41:48;8.30;95.00
43647;DHT22;56152;49.996;18.980;2023-04-25T04:46:51;8.30;94.60
43647;DHT22;56152;49.996;18.980;2023-04-25T04:51:53;8.30;94.60
43647;DHT22;56152;49.996;18.980;2023-04-25T04:56:58;8.30;94.60
43647;DHT22;56152;49.996;18.980;2023-04-25T05:02:00;8.40;94.50
43647;DHT22;56152;49.996;18.980;2023-04-25T05:07:03;8.40;94.50
43647;DHT22;56152;49.996;18.980;2023-04-25T05:12:08;8.40;94.40
43647;DHT22;56152;49.996;18.980;2023-04-25T05:17:13;8.50;94.40
43647;DHT22;56152;49.996;18.980;2023-04-25T05:22:15;8.50;94.40
43647;DHT22;56152;49.996;18.980;2023-04-25T05:27:20;8.70;94.40
43647;DHT22;56152;49.996;18.980;2023-04-25T05:32:22;8.80;94.30
43647;DHT22;56152;49.996;18.980;2023-04-25T05:37:25;8.90;94.20
43647;DHT22;56152;49.996;18.980;2023-04-25T05:42:38;9.00;94.10
43647;DHT22;56152;49.996;18.980;2023-04-25T05:47:40;9.10;94.00
43647;DHT22;56152;49.996;18.980;2023-04-25T05:52:42;9.20;93.80
43647;DHT22;56152;49.996;18.980;2023-04-25T05:57:46;9.30;93.80
43647;DHT22;56152;49.996;18.980;2023-04-25T06:02:48;9.40;93.70
43647;DHT22;56152;49.996;18.980;2023-04-25T06:07:51;9.40;93.60
43647;DHT22;56152;49.996;18.980;2023-04-25T06:12:56;9.40;93.50
43647;DHT22;56152;49.996;18.980;2023-04-25T06:17:59;9.50;93.50
43647;DHT22;56152;49.996;18.980;2023-04-25T06:23:01;9.60;93.40
43647;DHT22;56152;49.996;18.980;2023-04-25T06:28:04;9.60;93.30
43647;DHT22;56152;49.996;18.980;2023-04-25T06:33:06;9.70;93.20
43647;DHT22;56152;49.996;18.980;2023-04-25T06:38:09;9.70;93.10
43647;DHT22;56152;49.996;18.980;2023-04-25T06:43:14;9.70;93.10
43647;DHT22;56152;49.996;18.980;2023-04-25T06:48:19;9.60;92.90
43647;DHT22;56152;49.996;18.980;2023-04-25T06:53:24;9.60;93.10
43647;DHT22;56152;49.996;18.980;2023-04-25T06:58:30;9.70;93.00
43647;DHT22;56152;49.996;18.980;2023-04-25T07:03:32;9.70;92.90
43647;DHT22;56152;49.996;18.980;2023-04-25T07:08:35;9.70;92.80
43647;DHT22;56152;49.996;18.980;2023-04-25T07:13:39;9.70;92.70
43647;DHT22;56152;49.996;18.980;2023-04-25T07:18:40;9.80;92.60
43647;DHT22;56152;49.996;18.980;2023-04-25T07:23:43;9.90;92.50
43647;DHT22;56152;49.996;18.980;2023-04-25T07:28:47;10.00;92.40
43647;DHT22;56152;49.996;18.980;2023-04-25T07:33:51;10.10;92.10
43647;DHT22;56152;49.996;18.980;2023-04-25T07:38:53;10.30;92.10
43647;DHT22;56152;49.996;18.980;2023-04-25T07:43:57;10.30;91.90
43647;DHT22;56152;49.996;18.980;2023-04-25T07:49:01;10.50;91.70
43647;DHT22;56152;49.996;18.980;2023-04-25T07:54:04;10.70;91.50
43647;DHT22;56152;49.996;18.980;2023-04-25T07:59:08;10.90;91.20
43647;DHT22;56152;49.996;18.980;2023-04-25T08:04:11;11.00;91.00
43647;DHT22;56152;49.996;18.980;2023-04-25T08:09:13;11.30;90.60
43647;DHT22;56152;49.996;18.980;2023-04-25T08:14:17;11.30;90.30
43647;DHT22;56152;49.996;18.980;2023-04-25T08:19:21;11.60;90.10
43647;DHT22;56152;49.996;18.980;2023-04-25T08:24:24;11.90;89.50
43647;DHT22;56152;49.996;18.980;2023-04-25T08:29:28;12.10;88.90
43647;DHT22;56152;49.996;18.980;2023-04-25T08:34:34;12.30;87.40
43647;DHT22;56152;49.996;18.980;2023-04-25T08:39:39;12.10;86.60
43647;DHT22;56152;49.996;18.980;2023-04-25T08:44:45;11.90;87.20
43647;DHT22;56152;49.996;18.980;2023-04-25T08:49:46;11.70;87.00
43647;DHT22;56152;49.996;18.980;2023-04-25T08:54:49;11.90;87.50
43647;DHT22;56152;49.996;18.980;2023-04-25T08:59:56;12.60;86.10
43647;DHT22;56152;49.996;18.980;2023-04-25T09:05:03;12.90;84.10
43647;DHT22;56152;49.996;18.980;2023-04-25T09:10:07;12.60;82.90
43647;DHT22;56152;49.996;18.980;2023-04-25T09:15:13;12.20;83.30
43647;DHT22;56152;49.996;18.980;2023-04-25T09:20:15;11.90;83.60
43647;DHT22;56152;49.996;18.980;2023-04-25T09:25:19;12.00;83.90
43647;DHT22;56152;49.996;18.980;2023-04-25T09:30:30;12.10;83.10
43647;DHT22;56152;49.996;18.980;2023-04-25T09:35:39;12.40;82.70
43647;DHT22;56152;49.996;18.980;2023-04-25T09:40:44;12.90;82.10
43647;DHT22;56152;49.996;18.980;2023-04-25T09:45:49;13.30;80.90
43647;DHT22;56152;49.996;18.980;2023-04-25T09:51:05;13.70;79.30
43647;DHT22;56152;49.996;18.980;2023-04-25T09:56:10;14.00;78.50
43647;DHT22;56152;49.996;18.980;2023-04-25T10:01:14;14.10;77.00
43647;DHT22;56152;49.996;18.980;2023-04-25T10:06:23;14.00;76.90
43647;DHT22;56152;49.996;18.980;2023-04-25T10:11:27;13.70;77.60
43647;DHT22;56152;49.996;18.980;2023-04-25T10:16:31;13.60;78.00
43647;DHT22;56152;49.996;18.980;2023-04-25T10:21:34;13.60;78.00
43647;DHT22;56152;49.996;18.980;2023-04-25T10:26:36;13.60;77.60
43647;DHT22;56152;49.996;18.980;2023-04-25T10:31:46;13.60;76.80
43647;DHT22;56152;49.996;18.980;2023-04-25T10:36:51;13.30;76.00
43647;DHT22;56152;49.996;18.980;2023-04-25T10:41:56;12.90;73.30
43647;DHT22;56152;49.996;18.980;2023-04-25T10:47:01;12.80;77.60
43647;DHT22;56152;49.996;18.980;2023-04-25T10:52:14;12.70;77.00
43647;DHT22;56152;49.996;18.980;2023-04-25T10:57:30;12.60;76.60
43647;DHT22;56152;49.996;18.980;2023-04-25T11:02:40;12.60;77.00
43647;DHT22;56152;49.996;18.980;2023-04-25T11:07:50;12.70;76.80
43647;DHT22;56152;49.996;18.980;2023-04-25T11:12:54;12.70;76.80
43647;DHT22;56152;49.996;18.980;2023-04-25T11:18:00;12.60;76.10
43647;DHT22;56152;49.996;18.980;2023-04-25T11:23:04;12.50;76.00
43647;DHT22;56152;49.996;18.980;2023-04-25T11:28:06;12.40;76.20
43647;DHT22;56152;49.996;18.980;2023-04-25T11:33:11;12.40;76.20
43647;DHT22;56152;49.996;18.980;2023-04-25T11:38:12;12.40;75.90
43647;DHT22;56152;49.996;18.980;2023-04-25T11:43:18;12.40;75.90
43647;DHT22;56152;49.996;18.980;2023-04-25T11:48:24;12.40;75.60
43647;DHT22;56152;49.996;18.980;2023-04-25T11:53:26;12.30;75.10
43647;DHT22;56152;49.996;18.980;2023-04-25T11:58:28;12.30;75.40
43647;DHT22;56152;49.996;18.980;2023-04-25T12:03:32;12.30;75.60
43647;DHT22;56152;49.996;18.980;2023-04-25T12:08:37;12.20;75.50
43647;DHT22;56152;49.996;18.980;2023-04-25T12:13:39;12.20;75.40
43647;DHT22;56152;49.996;18.980;2023-04-25T12:18:42;12.30;75.00
43647;DHT22;56152;49.996;18.980;2023-04-25T12:23:45;12.30;74.70
43647;DHT22;56152;49.996;18.980;2023-04-25T12:28:47;12.40;74.60
43647;DHT22;56152;49.996;18.980;2023-04-25T12:33:50;12.30;74.10
43647;DHT22;56152;49.996;18.980;2023-04-25T12:38:52;12.20;74.20
43647;DHT22;56152;49.996;18.980;2023-04-25T12:43:54;12.30;74.10
43647;DHT22;56152;49.996;18.980;2023-04-25T12:49:00;12.30;73.60
43647;DHT22;56152;49.996;18.980;2023-04-25T12:54:05;12.30;73.60
43647;DHT22;56152;49.996;18.980;2023-04-25T12:59:07;12.30;73.80
43647;DHT22;56152;49.996;18.980;2023-04-25T13:04:14;12.40;73.70
43647;DHT22;56152;49.996;18.980;2023-04-25T13:09:16;12.40;73.40
43647;DHT22;56152;49.996;18.980;2023-04-25T13:14:18;12.50;73.20
43647;DHT22;56152;49.996;18.980;2023-04-25T13:19:25;12.50;72.30
43647;DHT22;56152;49.996;18.980;2023-04-25T13:24:29;12.50;71.80
43647;DHT22;56152;49.996;18.980;2023-04-25T13:29:31;12.40;72.00
43647;DHT22;56152;49.996;18.980;2023-04-25T13:34:36;12.30;72.20
43647;DHT22;56152;49.996;18.980;2023-04-25T13:39:38;12.40;72.30
43647;DHT22;56152;49.996;18.980;2023-04-25T13:44:41;12.50;72.00
43647;DHT22;56152;49.996;18.980;2023-04-25T13:49:44;12.60;71.50
43647;DHT22;56152;49.996;18.980;2023-04-25T13:54:48;12.60;71.10
43647;DHT22;56152;49.996;18.980;2023-04-25T13:59:51;13.00;71.20
43647;DHT22;56152;49.996;18.980;2023-04-25T14:04:55;13.40;70.20
43647;DHT22;56152;49.996;18.980;2023-04-25T14:10:01;13.60;69.70
43647;DHT22;56152;49.996;18.980;2023-04-25T14:15:06;13.80;69.40
43647;DHT22;56152;49.996;18.980;2023-04-25T14:20:11;13.70;68.90
43647;DHT22;56152;49.996;18.980;2023-04-25T14:25:15;13.60;68.70
43647;DHT22;56152;49.996;18.980;2023-04-25T14:30:21;13.50;69.20
43647;DHT22;56152;49.996;18.980;2023-04-25T14:35:25;13.60;69.20
43647;DHT22;56152;49.996;18.980;2023-04-25T14:40:27;13.60;68.70
43647;DHT22;56152;49.996;18.980;2023-04-25T14:45:29;13.60;68.90
43647;DHT22;56152;49.996;18.980;2023-04-25T14:50:34;13.50;68.90
43647;DHT22;56152;49.996;18.980;2023-04-25T14:55:35;13.20;69.20
43647;DHT22;56152;49.996;18.980;2023-04-25T15:00:40;12.90;69.80
43647;DHT22;56152;49.996;18.980;2023-04-25T15:05:45;12.70;70.30
43647;DHT22;56152;49.996;18.980;2023-04-25T15:10:47;12.90;70.70
43647;DHT22;56152;49.996;18.980;2023-04-25T15:15:50;13.40;70.20
43647;DHT22;56152;49.996;18.980;2023-04-25T15:20:55;13.50;69.20
43647;DHT22;56152;49.996;18.980;2023-04-25T15:26:00;13.60;68.90
43647;DHT22;56152;49.996;18.980;2023-04-25T15:31:02;13.40;68.70
43647;DHT22;56152;49.996;18.980;2023-04-25T15:36:08;13.10;69.10
43647;DHT22;56152;49.996;18.980;2023-04-25T15:41:15;13.00;68.80
43647;DHT22;56152;49.996;18.980;2023-04-25T15:46:18;12.90;69.30
43647;DHT22;56152;49.996;18.980;2023-04-25T15:51:23;12.80;69.10
43647;DHT22;56152;49.996;18.980;2023-04-25T15:56:32;12.60;69.50
43647;DHT22;56152;49.996;18.980;2023-04-25T16:01:35;12.40;69.60
43647;DHT22;56152;49.996;18.980;2023-04-25T16:06:39;12.20;70.20
43647;DHT22;56152;49.996;18.980;2023-04-25T16:11:42;12.10;70.90
43647;DHT22;56152;49.996;18.980;2023-04-25T16:16:44;11.90;71.10
43647;DHT22;56152;49.996;18.980;2023-04-25T16:21:51;11.90;71.50
43647;DHT22;56152;49.996;18.980;2023-04-25T16:26:53;11.80;71.30
43647;DHT22;56152;49.996;18.980;2023-04-25T16:31:55;11.80;71.60
43647;DHT22;56152;49.996;18.980;2023-04-25T16:37:01;11.70;72.00
43647;DHT22;56152;49.996;18.980;2023-04-25T16:42:03;11.70;72.20
43647;DHT22;56152;49.996;18.980;2023-04-25T16:47:06;11.60;72.20
43647;DHT22;56152;49.996;18.980;2023-04-25T16:52:13;11.50;72.10
43647;DHT22;56152;49.996;18.980;2023-04-25T16:57:18;11.40;72.50
43647;DHT22;56152;49.996;18.980;2023-04-25T17:02:21;11.30;72.70
43647;DHT22;56152;49.996;18.980;2023-04-25T17:07:27;11.20;72.90
43647;DHT22;56152;49.996;18.980;2023-04-25T17:12:29;11.10;72.90
43647;DHT22;56152;49.996;18.980;2023-04-25T17:17:32;11.00;73.20
43647;DHT22;56152;49.996;18.980;2023-04-25T17:22:39;11.00;73.30
43647;DHT22;56152;49.996;18.980;2023-04-25T17:27:43;10.90;73.40
43647;DHT22;56152;49.996;18.980;2023-04-25T17:32:47;10.90;73.60
43647;DHT22;56152;49.996;18.980;2023-04-25T17:37:52;10.80;73.80
43647;DHT22;56152;49.996;18.980;2023-04-25T17:42:57;10.80;74.40
43647;DHT22;56152;49.996;18.980;2023-04-25T17:48:00;10.70;74.50
43647;DHT22;56152;49.996;18.980;2023-04-25T17:53:07;10.60;74.60
43647;DHT22;56152;49.996;18.980;2023-04-25T17:58:14;10.50;74.80
43647;DHT22;56152;49.996;18.980;2023-04-25T18:03:17;10.40;74.90
43647;DHT22;56152;49.996;18.980;2023-04-25T18:08:28;10.30;75.30
43647;DHT22;56152;49.996;18.980;2023-04-25T18:13:31;10.20;75.60
43647;DHT22;56152;49.996;18.980;2023-04-25T18:18:35;10.00;75.80
43647;DHT22;56152;49.996;18.980;2023-04-25T18:23:44;9.90;75.80
43647;DHT22;56152;49.996;18.980;2023-04-25T18:28:49;9.90;76.00
43647;DHT22;56152;49.996;18.980;2023-04-25T18:33:52;9.90;76.00
43647;DHT22;56152;49.996;18.980;2023-04-25T18:38:55;9.90;76.10
43647;DHT22;56152;49.996;18.980;2023-04-25T18:44:00;10.20;75.40
43647;DHT22;56152;49.996;18.980;2023-04-25T18:49:04;10.20;74.60
43647;DHT22;56152;49.996;18.980;2023-04-25T18:54:08;10.30;74.80
43647;DHT22;56152;49.996;18.980;2023-04-25T18:59:12;10.40;73.80
43647;DHT22;56152;49.996;18.980;2023-04-25T19:04:16;10.30;73.70
43647;DHT22;56152;49.996;18.980;2023-04-25T19:09:22;10.20;73.70
43647;DHT22;56152;49.996;18.980;2023-04-25T19:14:27;10.20;74.00
43647;DHT22;56152;49.996;18.980;2023-04-25T19:19:29;10.10;74.10
43647;DHT22;56152;49.996;18.980;2023-04-25T19:24:33;10.10;74.20
43647;DHT22;56152;49.996;18.980;2023-04-25T19:29:36;10.00;74.30
43647;DHT22;56152;49.996;18.980;2023-04-25T19:34:48;10.00;74.20
43647;DHT22;56152;49.996;18.980;2023-04-25T19:39:57;9.90;74.30
43647;DHT22;56152;49.996;18.980;2023-04-25T19:45:01;9.90;74.50
43647;DHT22;56152;49.996;18.980;2023-04-25T19:50:07;9.90;74.50
43647;DHT22;56152;49.996;18.980;2023-04-25T19:55:14;9.80;74.70
43647;DHT22;56152;49.996;18.980;2023-04-25T20:00:17;9.70;74.90
43647;DHT22;56152;49.996;18.980;2023-04-25T20:05:22;9.60;75.20
43647;DHT22;56152;49.996;18.980;2023-04-25T20:10:26;9.50;75.20
43647;DHT22;56152;49.996;18.980;2023-04-25T20:15:28;9.30;75.30
43647;DHT22;56152;49.996;18.980;2023-04-25T20:20:31;9.30;75.60
43647;DHT22;56152;49.996;18.980;2023-04-25T20:25:37;9.20;75.70
43647;DHT22;56152;49.996;18.980;2023-04-25T20:30:42;9.10;75.90
43647;DHT22;56152;49.996;18.980;2023-04-25T20:35:45;9.00;76.10
43647;DHT22;56152;49.996;18.980;2023-04-25T20:40:49;9.00;76.20
43647;DHT22;56152;49.996;18.980;2023-04-25T20:45:52;8.90;76.40
43647;DHT22;56152;49.996;18.980;2023-04-25T20:50:54;8.90;76.70
43647;DHT22;56152;49.996;18.980;2023-04-25T20:56:02;8.80;76.90
43647;DHT22;56152;49.996;18.980;2023-04-25T21:01:05;8.80;77.20
43647;DHT22;56152;49.996;18.980;2023-04-25T21:06:10;8.70;77.30
43647;DHT22;56152;49.996;18.980;2023-04-25T21:11:14;8.70;77.60
43647;DHT22;56152;49.996;18.980;2023-04-25T21:16:17;8.60;77.70
43647;DHT22;56152;49.996;18.980;2023-04-25T21:21:23;8.60;78.10
43647;DHT22;56152;49.996;18.980;2023-04-25T21:26:29;8.60;78.20
43647;DHT22;56152;49.996;18.980;2023-04-25T21:32:00;8.60;78.30
43647;DHT22;56152;49.996;18.980;2023-04-25T21:37:20;8.60;78.50
43647;DHT22;56152;49.996;18.980;2023-04-25T21:43:14;8.60;78.60
43647;DHT22;56152;49.996;18.980;2023-04-25T21:48:45;8.60;78.90
43647;DHT22;56152;49.996;18.980;2023-04-25T22:05:49;8.50;78.90
43647;DHT22;56152;49.996;18.980;2023-04-25T22:10:59;8.50;78.70
43647;DHT22;56152;49.996;18.980;2023-04-25T22:16:08;8.40;78.50
43647;DHT22;56152;49.996;18.980;2023-04-25T22:21:13;8.30;78.50
43647;DHT22;56152;49.996;18.980;2023-04-25T22:26:17;8.20;79.00
43647;DHT22;56152;49.996;18.980;2023-04-25T22:31:31;8.10;78.90
43647;DHT22;56152;49.996;18.980;2023-04-25T22:36:38;7.90;79.60
43647;DHT22;56152;49.996;18.980;2023-04-25T22:41:52;7.80;80.00
43647;DHT22;56152;49.996;18.980;2023-04-25T22:46:54;7.70;80.20
43647;DHT22;56152;49.996;18.980;2023-04-25T22:51:58;7.70;80.40
43647;DHT22;56152;49.996;18.980;2023-04-25T22:57:00;7.60;80.50
43647;DHT22;56152;49.996;18.980;2023-04-25T23:02:07;7.70;80.80
43647;DHT22;56152;49.996;18.980;2023-04-25T23:07:12;7.70;80.90
43647;DHT22;56152;49.996;18.980;2023-04-25T23:12:16;7.60;81.20
43647;DHT22;56152;49.996;18.980;2023-04-25T23:17:18;7.60;81.60
43647;DHT22;56152;49.996;18.980;2023-04-25T23:22:23;7.60;81.90
43647;DHT22;56152;49.996;18.980;2023-04-25T23:27:25;7.60;82.10
43647;DHT22;56152;49.996;18.980;2023-04-25T23:32:28;7.60;82.20
43647;DHT22;56152;49.996;18.980;2023-04-25T23:37:34;7.60;82.20
43647;DHT22;56152;49.996;18.980;2023-04-25T23:42:39;7.60;82.60
43647;DHT22;56152;49.996;18.980;2023-04-25T23:47:43;7.50;82.70
43647;DHT22;56152;49.996;18.980;2023-04-25T23:52:47;7.50;83.30
43647;DHT22;56152;49.996;18.980;2023-04-25T23:57:50;7.50;82.90
